createdAt,value
2023-05-08T00:01:26.412Z,97389.88
2023-05-08T00:03:53.532Z,97379.63
2023-05-08T00:06:20.448Z,97381.22
2023-05-08T00:08:47.138Z,97379.75
2023-05-08T00:11:14.003Z,97373.44
2023-05-08T00:13:41.521Z,97370.09
2023-05-08T00:16:12.632Z,97378.19
2023-05-08T00:18:39.768Z,97372.56
2023-05-08T00:21:06.826Z,97372.56
2023-05-08T00:23:34.029Z,97373.03
2023-05-08T00:26:00.796Z,97371.00
2023-05-08T00:28:27.597Z,97378.22
2023-05-08T00:30:54.369Z,97370.00
2023-05-08T00:33:21.109Z,97372.75
2023-05-08T00:35:47.809Z,97369.41
2023-05-08T00:38:14.550Z,97369.41
2023-05-08T00:40:42.810Z,97366.94
2023-05-08T00:43:09.486Z,97363.63
2023-05-08T00:45:37.979Z,97364.78
2023-05-08T00:48:05.134Z,97366.53
2023-05-08T00:50:32.280Z,97359.63
2023-05-08T00:53:01.128Z,97363.66
2023-05-08T00:55:27.969Z,97363.50
2023-05-08T00:57:54.618Z,97369.59
2023-05-08T01:00:22.288Z,97371.75
2023-05-08T01:02:50.090Z,97375.78
2023-05-08T01:05:16.844Z,97375.91
2023-05-08T01:07:43.546Z,97375.34
2023-05-08T01:10:10.664Z,97381.53
2023-05-08T01:13:02.155Z,97385.13
2023-05-08T01:15:38.626Z,97383.84
2023-05-08T01:18:21.895Z,97391.63
2023-05-08T01:20:53.805Z,97386.31
2023-05-08T01:23:51.451Z,97383.97
2023-05-08T01:26:42.926Z,97390.06
2023-05-08T01:29:19.014Z,97387.88
2023-05-08T01:32:06.661Z,97392.34
2023-05-08T01:34:34.274Z,97401.16
2023-05-08T01:37:03.917Z,97399.84
2023-05-08T01:39:45.133Z,97397.00
2023-05-08T01:42:26.416Z,97389.78
2023-05-08T01:45:05.748Z,97391.41
2023-05-08T01:47:33.791Z,97389.22
2023-05-08T01:50:07.408Z,97400.03
2023-05-08T01:52:44.700Z,97393.72
2023-05-08T01:55:13.483Z,97399.63
2023-05-08T01:57:47.998Z,97410.28
2023-05-08T02:00:16.656Z,97404.81
2023-05-08T02:02:44.180Z,97406.84
2023-05-08T02:05:11.179Z,97411.88
2023-05-08T02:07:38.858Z,97414.16
2023-05-08T02:10:06.733Z,97414.16
2023-05-08T02:12:34.741Z,97413.75
2023-05-08T02:15:03.215Z,97405.66
2023-05-08T02:17:30.435Z,97408.41
2023-05-08T02:19:58.390Z,97412.00
2023-05-08T02:22:25.532Z,97413.44
2023-05-08T02:24:55.643Z,97412.84
2023-05-08T02:27:23.879Z,97414.16
2023-05-08T02:29:52.038Z,97418.34
2023-05-08T02:32:20.870Z,97416.19
2023-05-08T02:35:01.941Z,97417.63
2023-05-08T02:37:30.471Z,97417.78
2023-05-08T02:39:58.644Z,97418.50
2023-05-08T02:42:25.635Z,97420.09
2023-05-08T02:44:52.431Z,97412.44
2023-05-08T02:47:22.460Z,97420.66
2023-05-08T02:49:53.274Z,97418.50
2023-05-08T02:52:28.466Z,97427.16
2023-05-08T02:55:26.563Z,97434.66
2023-05-08T02:58:14.908Z,97436.09
2023-05-08T03:00:47.993Z,97434.09
2023-05-08T03:03:22.911Z,97433.50
2023-05-08T03:05:58.146Z,97431.50
2023-05-08T03:08:31.548Z,97436.25
2023-05-08T03:11:01.782Z,97433.09
2023-05-08T03:13:31.617Z,97430.34
2023-05-08T03:16:00.872Z,97432.06
2023-05-08T03:18:32.212Z,97429.34
2023-05-08T03:21:00.028Z,97428.75
2023-05-08T03:23:30.842Z,97428.03
2023-05-08T03:25:59.266Z,97425.28
2023-05-08T03:28:27.637Z,97426.00
2023-05-08T03:30:57.397Z,97425.28
2023-05-08T03:33:24.572Z,97419.69
2023-05-08T03:35:51.251Z,97423.00
2023-05-08T03:38:18.723Z,97423.56
2023-05-08T03:40:45.503Z,97415.34
2023-05-08T03:43:12.316Z,97422.84
2023-05-08T03:45:41.118Z,97421.56
2023-05-08T03:48:09.430Z,97423.28
2023-05-08T03:50:38.180Z,97421.69
2023-05-08T03:53:07.717Z,97420.56
2023-05-08T03:55:34.363Z,97428.47
2023-05-08T03:58:25.053Z,97428.47
2023-05-08T04:01:06.480Z,97423.72
2023-05-08T04:03:56.640Z,97428.91
2023-05-08T04:06:48.751Z,97435.97
2023-05-08T04:09:31.929Z,97437.97
2023-05-08T04:12:10.165Z,97438.81
2023-05-08T04:14:55.508Z,97442.56
2023-05-08T04:17:42.973Z,97446.03
2023-05-08T04:20:14.832Z,97452.50
2023-05-08T04:22:42.644Z,97451.50
2023-05-08T04:25:10.704Z,97448.75
2023-05-08T04:27:38.972Z,97450.63
2023-05-08T04:30:08.329Z,97445.75
2023-05-08T04:32:37.159Z,97450.50
2023-05-08T04:35:06.273Z,97448.63
2023-05-08T04:37:32.974Z,97455.13
2023-05-08T04:40:03.835Z,97447.91
2023-05-08T04:42:33.449Z,97451.09
2023-05-08T04:45:01.062Z,97441.75
2023-05-08T04:47:27.738Z,97450.38
2023-05-08T04:49:54.747Z,97447.19
2023-05-08T04:52:21.441Z,97455.72
2023-05-08T04:54:48.244Z,97449.09
2023-05-08T04:57:14.950Z,97451.25
2023-05-08T04:59:41.848Z,97455.00
2023-05-08T05:02:09.465Z,97455.72
2023-05-08T05:04:37.025Z,97450.66
2023-05-08T05:07:05.101Z,97454.53
2023-05-08T05:09:34.933Z,97462.63
2023-05-08T05:12:01.707Z,97463.03
2023-05-08T05:14:30.129Z,97462.59
2023-05-08T05:16:57.118Z,97464.91
2023-05-08T05:19:23.834Z,97467.25
2023-05-08T05:21:50.811Z,97467.53
2023-05-08T05:24:17.574Z,97460.03
2023-05-08T05:26:44.219Z,97472.72
2023-05-08T05:29:11.332Z,97480.06
2023-05-08T05:31:39.014Z,97480.50
2023-05-08T05:34:06.279Z,97492.91
2023-05-08T05:36:32.868Z,97487.16
2023-05-08T05:38:59.680Z,97483.22
2023-05-08T05:41:26.386Z,97485.97
2023-05-08T05:43:53.226Z,97485.53
2023-05-08T05:46:19.984Z,97486.41
2023-05-08T05:48:46.653Z,97486.25
2023-05-08T05:51:13.695Z,97485.94
2023-05-08T05:53:40.851Z,97491.84
2023-05-08T05:56:07.797Z,97487.06
2023-05-08T05:58:34.828Z,97483.31
2023-05-08T06:01:01.686Z,97490.22
2023-05-08T06:03:29.976Z,97489.94
2023-05-08T06:05:56.813Z,97487.06
2023-05-08T06:08:23.539Z,97496.69
2023-05-08T06:10:50.198Z,97496.47
2023-05-08T06:13:17.157Z,97493.38
2023-05-08T06:15:44.090Z,97498.09
2023-05-08T06:18:11.143Z,97498.13
2023-05-08T06:20:38.744Z,97495.44
2023-05-08T06:23:06.132Z,97494.78
2023-05-08T06:25:32.899Z,97490.03
2023-05-08T06:27:59.645Z,97498.75
2023-05-08T06:30:26.390Z,97497.34
2023-05-08T06:32:53.145Z,97491.00
2023-05-08T06:35:19.994Z,97484.31
2023-05-08T06:37:46.825Z,97485.81
2023-05-08T06:40:13.915Z,97490.28
2023-05-08T06:42:41.093Z,97490.94
2023-05-08T06:45:09.069Z,97492.16
2023-05-08T06:47:35.939Z,97499.69
2023-05-08T06:50:02.757Z,97485.44
2023-05-08T06:52:29.488Z,97494.41
2023-05-08T06:54:56.134Z,97487.00
2023-05-08T06:57:24.275Z,97490.47
2023-05-08T06:59:50.964Z,97497.13
2023-05-08T07:02:17.646Z,97492.22
2023-05-08T07:04:44.770Z,97483.53
2023-05-08T07:07:12.818Z,97480.66
2023-05-08T07:09:39.840Z,97487.22
2023-05-08T07:12:07.286Z,97496.34
2023-05-08T07:14:34.065Z,97483.59
2023-05-08T07:17:06.827Z,97480.63
2023-05-08T07:19:36.921Z,97478.84
2023-05-08T07:22:04.434Z,97474.06
2023-05-08T07:24:31.657Z,97476.09
2023-05-08T07:26:59.657Z,97478.72
2023-05-08T07:29:27.004Z,97490.97
2023-05-08T07:31:53.967Z,97492.16
2023-05-08T07:34:20.877Z,97488.31
2023-05-08T07:36:47.554Z,97486.97
2023-05-08T07:39:14.266Z,97494.66
2023-05-08T07:41:41.237Z,97501.25
2023-05-08T07:44:08.311Z,97492.84
2023-05-08T07:46:35.119Z,97500.94
2023-05-08T07:49:01.917Z,97503.56
2023-05-08T07:51:28.928Z,97508.63
2023-05-08T07:53:55.644Z,97514.28
2023-05-08T07:56:25.194Z,97519.50
2023-05-08T07:58:51.933Z,97514.16
2023-05-08T08:01:18.662Z,97522.38
2023-05-08T08:03:46.155Z,97516.28
2023-05-08T08:06:12.934Z,97521.81
2023-05-08T08:08:39.658Z,97528.56
2023-05-08T08:11:07.301Z,97523.72
2023-05-08T08:13:34.225Z,97530.16
2023-05-08T08:16:01.400Z,97519.41
2023-05-08T08:18:28.664Z,97514.69
2023-05-08T08:20:55.483Z,97528.50
2023-05-08T08:23:22.367Z,97529.13
2023-05-08T08:25:49.005Z,97527.06
2023-05-08T08:28:15.822Z,97537.00
2023-05-08T08:30:42.496Z,97529.66
2023-05-08T08:33:09.348Z,97526.81
2023-05-08T08:35:36.000Z,97530.59
2023-05-08T08:38:02.646Z,97527.44
2023-05-08T08:40:29.358Z,97532.13
2023-05-08T08:42:56.119Z,97530.31
2023-05-08T08:45:22.809Z,97528.94
2023-05-08T08:47:52.264Z,97535.06
2023-05-08T08:50:20.078Z,97540.19
2023-05-08T08:53:10.537Z,97542.13
2023-05-08T08:55:40.364Z,97546.53
2023-05-08T08:58:46.812Z,97551.13
2023-05-08T09:01:18.379Z,97544.06
2023-05-08T09:03:46.767Z,97536.78
2023-05-08T09:06:15.345Z,97542.34
2023-05-08T09:08:42.671Z,97541.78
2023-05-08T09:11:12.434Z,97547.97
2023-05-08T09:13:39.201Z,97546.63
2023-05-08T09:16:06.266Z,97541.06
2023-05-08T09:18:33.159Z,97550.19
2023-05-08T09:21:01.481Z,97548.03
2023-05-08T09:23:28.346Z,97546.72
2023-05-08T09:25:55.004Z,97556.28
2023-05-08T09:28:24.033Z,97550.63
2023-05-08T09:30:58.907Z,97554.81
2023-05-08T09:33:27.576Z,97553.41
2023-05-08T09:35:57.510Z,97560.72
2023-05-08T09:38:40.465Z,97555.00
2023-05-08T09:41:11.966Z,97564.72
2023-05-08T09:43:39.256Z,97567.41
2023-05-08T09:46:23.903Z,97559.06
2023-05-08T09:48:55.396Z,97568.13
2023-05-08T09:51:23.284Z,97562.41
2023-05-08T09:53:53.866Z,97555.22
2023-05-08T09:56:37.539Z,97561.78
2023-05-08T09:59:06.360Z,97569.25
2023-05-08T10:01:36.634Z,97564.25
2023-05-08T10:04:05.569Z,97567.72
2023-05-08T10:06:32.701Z,97569.53
2023-05-08T10:09:10.185Z,97570.34
2023-05-08T10:11:37.247Z,97574.75
2023-05-08T10:14:03.961Z,97561.03
2023-05-08T10:16:31.736Z,97565.53
2023-05-08T10:19:05.920Z,97565.13
2023-05-08T10:21:37.601Z,97567.59
2023-05-08T10:24:07.036Z,97566.91
2023-05-08T10:26:34.216Z,97559.53
2023-05-08T10:29:08.303Z,97564.66
2023-05-08T10:31:36.463Z,97551.53
2023-05-08T10:34:04.119Z,97553.78
2023-05-08T10:36:32.484Z,97541.38
2023-05-08T10:38:59.502Z,97545.66
2023-05-08T10:41:26.719Z,97541.41
2023-05-08T10:43:53.614Z,97547.56
2023-05-08T10:46:38.254Z,97538.28
2023-05-08T10:49:22.417Z,97539.47
2023-05-08T10:52:08.169Z,97528.38
2023-05-08T10:55:33.411Z,97541.53
2023-05-08T10:58:12.236Z,97539.59
2023-05-08T11:00:56.753Z,97529.66
2023-05-08T11:03:31.399Z,97542.59
2023-05-08T11:06:00.313Z,97527.88
2023-05-08T11:08:28.285Z,97534.28
2023-05-08T11:11:01.796Z,97525.63
2023-05-08T11:13:36.105Z,97530.03
2023-05-08T11:16:03.748Z,97533.16
2023-05-08T11:18:45.732Z,97528.69
2023-05-08T11:21:23.442Z,97522.81
2023-05-08T11:23:57.911Z,97523.50
2023-05-08T11:26:40.049Z,97524.19
2023-05-08T11:29:16.778Z,97521.63
2023-05-08T11:31:51.017Z,97517.31
2023-05-08T11:34:42.966Z,97520.78
2023-05-08T11:37:10.534Z,97518.09
2023-05-08T11:39:37.485Z,97523.06
2023-05-08T11:42:26.906Z,97521.06
2023-05-08T11:45:11.806Z,97518.38
2023-05-08T11:47:41.421Z,97522.63
2023-05-08T11:50:09.829Z,97521.25
2023-05-08T11:52:37.617Z,97524.97
2023-05-08T11:55:06.145Z,97525.28
2023-05-08T11:57:33.371Z,97519.34
2023-05-08T12:00:10.848Z,97514.97
2023-05-08T12:02:45.985Z,97513.50
2023-05-08T12:05:12.974Z,97512.09
2023-05-08T12:07:44.753Z,97515.69
2023-05-08T12:10:11.794Z,97509.84
2023-05-08T12:12:42.566Z,97507.41
2023-05-08T12:15:13.702Z,97514.34
2023-05-08T12:17:41.450Z,97521.34
2023-05-08T12:20:17.129Z,97514.66
2023-05-08T12:22:52.798Z,97512.47
2023-05-08T12:25:20.157Z,97514.09
2023-05-08T12:27:47.060Z,97513.88
2023-05-08T12:30:14.933Z,97518.41
2023-05-08T12:32:42.836Z,97515.91
2023-05-08T12:35:11.088Z,97510.38
2023-05-08T12:37:38.093Z,97523.16
2023-05-08T12:40:05.481Z,97511.84
2023-05-08T12:42:47.898Z,97508.50
2023-05-08T12:45:18.489Z,97507.16
2023-05-08T12:47:46.793Z,97510.97
2023-05-08T12:50:15.590Z,97500.97
2023-05-08T12:52:42.818Z,97494.03
2023-05-08T12:55:21.454Z,97492.31
2023-05-08T12:57:59.136Z,97497.28
2023-05-08T13:00:26.010Z,97498.25
2023-05-08T13:02:55.883Z,97499.56
2023-05-08T13:05:23.776Z,97500.66
2023-05-08T13:07:51.427Z,97491.16
2023-05-08T13:10:23.974Z,97491.84
2023-05-08T13:12:52.287Z,97487.00
2023-05-08T13:15:19.043Z,97485.19
2023-05-08T13:17:45.746Z,97485.16
2023-05-08T13:20:12.582Z,97478.28
2023-05-08T13:22:39.502Z,97474.47
2023-05-08T13:25:08.037Z,97474.97
2023-05-08T13:27:34.800Z,97469.78
2023-05-08T13:30:01.502Z,97472.78
2023-05-08T13:32:28.634Z,97461.22
2023-05-08T13:34:57.710Z,97460.91
2023-05-08T13:37:26.904Z,97461.00
2023-05-08T13:39:53.521Z,97461.75
2023-05-08T13:42:20.317Z,97470.06
2023-05-08T13:44:46.962Z,97466.81
2023-05-08T13:47:13.640Z,97461.06
2023-05-08T13:49:40.301Z,97457.78
2023-05-08T13:52:07.940Z,97453.78
2023-05-08T13:54:34.551Z,97447.03
2023-05-08T13:57:02.636Z,97454.50
2023-05-08T13:59:31.280Z,97453.94
2023-05-08T14:01:58.050Z,97451.41
2023-05-08T14:04:24.741Z,97452.69
2023-05-08T14:06:51.506Z,97450.63
2023-05-08T14:09:18.190Z,97464.66
2023-05-08T14:11:45.050Z,97455.28
2023-05-08T14:14:11.758Z,97445.72
2023-05-08T14:16:38.533Z,97449.03
2023-05-08T14:19:05.332Z,97444.94
2023-05-08T14:21:32.116Z,97448.19
2023-05-08T14:23:58.760Z,97452.44
2023-05-08T14:26:26.425Z,97455.69
2023-05-08T14:28:53.103Z,97448.84
2023-05-08T14:31:19.846Z,97453.38
2023-05-08T14:33:46.525Z,97444.53
2023-05-08T14:36:13.198Z,97451.06
2023-05-08T14:38:39.771Z,97455.56
2023-05-08T14:41:06.540Z,97466.38
2023-05-08T14:43:33.374Z,97458.53
2023-05-08T14:46:00.091Z,97460.97
2023-05-08T14:48:27.590Z,97460.50
2023-05-08T14:50:54.244Z,97460.13
2023-05-08T14:53:21.895Z,97465.06
2023-05-08T14:55:48.962Z,97457.66
2023-05-08T14:58:15.871Z,97458.44
2023-05-08T15:00:42.542Z,97461.03
2023-05-08T15:03:09.276Z,97460.50
2023-05-08T15:05:35.984Z,97451.00
2023-05-08T15:08:02.958Z,97451.19
2023-05-08T15:10:29.774Z,97456.88
2023-05-08T15:12:56.604Z,97459.41
2023-05-08T15:15:23.574Z,97459.72
2023-05-08T15:17:50.186Z,97465.16
2023-05-08T15:20:17.199Z,97460.03
2023-05-08T15:22:43.954Z,97469.38
2023-05-08T15:25:10.950Z,97462.66
2023-05-08T15:27:37.659Z,97458.63
2023-05-08T15:30:05.137Z,97458.25
2023-05-08T15:32:31.824Z,97457.03
2023-05-08T15:34:58.579Z,97460.00
2023-05-08T15:37:25.268Z,97461.75
2023-05-08T15:39:51.960Z,97469.78
2023-05-08T15:42:18.679Z,97470.63
2023-05-08T15:47:15.397Z,97479.50
2023-05-08T15:49:42.264Z,97475.31
2023-05-08T15:52:09.056Z,97478.69
2023-05-08T15:54:35.673Z,97467.69
2023-05-08T15:57:02.400Z,97485.75
2023-05-08T15:59:30.510Z,97469.94
2023-05-08T16:01:57.132Z,97474.31
2023-05-08T16:04:23.742Z,97468.69
2023-05-08T16:06:50.495Z,97477.56
2023-05-08T16:09:17.107Z,97477.28
2023-05-08T16:11:43.740Z,97475.72
2023-05-08T16:14:10.391Z,97472.88
2023-05-08T16:16:38.343Z,97467.22
2023-05-08T16:19:05.009Z,97473.00
2023-05-08T16:21:31.695Z,97472.63
2023-05-08T16:23:58.442Z,97476.41
2023-05-08T16:26:26.388Z,97478.03
2023-05-08T16:28:53.058Z,97475.44
2023-05-08T16:31:19.815Z,97476.31
2023-05-08T16:33:46.584Z,97476.03
2023-05-08T16:36:13.309Z,97465.97
2023-05-08T16:38:40.002Z,97463.16
2023-05-08T16:41:09.118Z,97466.63
2023-05-08T16:43:35.901Z,97471.56
2023-05-08T16:46:02.633Z,97462.41
2023-05-08T16:48:30.351Z,97462.78
2023-05-08T16:50:57.268Z,97457.91
2023-05-08T16:53:23.998Z,97470.41
2023-05-08T16:55:50.822Z,97469.09
2023-05-08T16:58:17.530Z,97469.41
2023-05-08T17:00:44.372Z,97458.47
2023-05-08T17:03:11.311Z,97471.63
2023-05-08T17:05:38.214Z,97475.88
2023-05-08T17:08:04.934Z,97474.13
2023-05-08T17:10:31.682Z,97471.69
2023-05-08T17:12:58.422Z,97473.84
2023-05-08T17:15:25.069Z,97469.88
2023-05-08T17:17:51.788Z,97471.31
2023-05-08T17:20:18.431Z,97476.13
2023-05-08T17:22:45.178Z,97475.50
2023-05-08T17:25:11.815Z,97482.56
2023-05-08T17:27:39.020Z,97475.72
2023-05-08T17:30:08.393Z,97478.47
2023-05-08T17:32:35.251Z,97480.41
2023-05-08T17:35:01.909Z,97480.69
2023-05-08T17:37:28.688Z,97481.88
2023-05-08T17:39:55.326Z,97486.06
2023-05-08T17:42:21.988Z,97490.53
2023-05-08T17:44:48.751Z,97502.25
2023-05-08T17:47:15.411Z,97493.88
2023-05-08T17:49:42.069Z,97502.09
2023-05-08T17:52:08.700Z,97505.81
2023-05-08T17:54:35.361Z,97503.75
2023-05-08T17:57:02.117Z,97498.13
2023-05-08T17:59:28.766Z,97504.75
2023-05-08T18:01:55.499Z,97506.88
2023-05-08T18:04:22.236Z,97503.72
2023-05-08T18:06:49.531Z,97499.13
2023-05-08T18:09:16.378Z,97501.59
2023-05-08T18:11:43.094Z,97505.28
2023-05-08T18:14:09.839Z,97509.69
2023-05-08T18:16:36.587Z,97500.97
2023-05-08T18:19:03.339Z,97515.66
2023-05-08T18:21:30.162Z,97496.19
2023-05-08T18:23:56.799Z,97497.56
2023-05-08T18:26:23.500Z,97493.31
2023-05-08T18:28:50.206Z,97491.03
2023-05-08T18:31:17.056Z,97483.84
2023-05-08T18:33:43.798Z,97487.34
2023-05-08T18:36:10.742Z,97487.81
2023-05-08T18:38:37.510Z,97491.81
2023-05-08T18:41:05.206Z,97491.19
2023-05-08T18:43:31.935Z,97484.59
2023-05-08T18:46:00.591Z,97490.91
2023-05-08T18:48:27.606Z,97492.34
2023-05-08T18:50:58.504Z,97489.69
2023-05-08T18:53:25.884Z,97488.69
2023-05-08T18:55:52.902Z,97486.16
2023-05-08T18:58:19.668Z,97490.81
2023-05-08T19:00:46.412Z,97473.25
2023-05-08T19:03:13.662Z,97486.34
2023-05-08T19:05:43.679Z,97482.97
2023-05-08T19:08:10.495Z,97482.59
2023-05-08T19:10:37.154Z,97480.75
2023-05-08T19:13:03.920Z,97480.09
2023-05-08T19:15:30.606Z,97482.78
2023-05-08T19:17:57.345Z,97488.16
2023-05-08T19:20:24.089Z,97487.78
2023-05-08T19:22:50.824Z,97491.84
2023-05-08T19:25:17.485Z,97496.47
2023-05-08T19:27:44.194Z,97494.63
2023-05-08T19:30:11.280Z,97493.75
2023-05-08T19:32:38.171Z,97490.88
2023-05-08T19:35:05.197Z,97501.72
2023-05-08T19:37:31.848Z,97506.16
2023-05-08T19:39:58.428Z,97498.53
2023-05-08T19:42:25.152Z,97501.16
2023-05-08T19:44:51.836Z,97500.56
2023-05-08T19:47:19.681Z,97513.56
2023-05-08T19:49:46.333Z,97507.50
2023-05-08T19:52:13.100Z,97510.94
2023-05-08T19:54:39.750Z,97513.56
2023-05-08T19:57:06.471Z,97513.69
2023-05-08T19:59:33.119Z,97509.66
2023-05-08T20:01:59.879Z,97519.50
2023-05-08T20:04:26.577Z,97510.56
2023-05-08T20:06:53.197Z,97513.03
2023-05-08T20:09:19.859Z,97517.34
2023-05-08T20:11:47.125Z,97517.03
2023-05-08T20:14:13.806Z,97521.22
2023-05-08T20:16:41.753Z,97523.13
2023-05-08T20:19:08.570Z,97518.63
2023-05-08T20:21:35.315Z,97518.31
2023-05-08T20:24:02.021Z,97520.06
2023-05-08T20:26:29.498Z,97520.34
2023-05-08T20:28:56.930Z,97515.44
2023-05-08T20:31:25.736Z,97509.66
2023-05-08T20:33:52.497Z,97517.41
2023-05-08T20:36:19.118Z,97524.06
2023-05-08T20:38:45.814Z,97520.34
2023-05-08T20:41:12.459Z,97520.59
2023-05-08T20:43:39.024Z,97522.19
2023-05-08T20:46:05.846Z,97514.06
2023-05-08T20:48:32.540Z,97518.13
2023-05-08T20:50:59.422Z,97515.50
2023-05-08T20:53:26.160Z,97512.56
2023-05-08T20:56:00.513Z,97511.78
2023-05-08T20:58:27.238Z,97515.09
2023-05-08T21:00:53.916Z,97522.06
2023-05-08T21:03:20.584Z,97511.78
2023-05-08T21:05:47.219Z,97510.81
2023-05-08T21:08:13.934Z,97504.59
2023-05-08T21:10:40.675Z,97500.72
2023-05-08T21:13:07.422Z,97496.53
2023-05-08T21:15:35.070Z,97491.97
2023-05-08T21:18:01.897Z,97490.38
2023-05-08T21:20:28.522Z,97489.66
2023-05-08T21:22:55.564Z,97483.03
2023-05-08T21:25:22.367Z,97485.53
2023-05-08T21:27:49.014Z,97476.84
2023-05-08T21:30:16.449Z,97481.94
2023-05-08T21:32:44.318Z,97474.91
2023-05-08T21:35:12.187Z,97478.19
2023-05-08T21:37:39.536Z,97467.34
2023-05-08T21:40:06.943Z,97469.50
2023-05-08T21:42:33.723Z,97471.34
2023-05-08T21:45:00.884Z,97456.63
2023-05-08T21:47:28.128Z,97460.56
2023-05-08T21:49:55.313Z,97454.00
2023-05-08T21:52:22.676Z,97456.88
2023-05-08T21:54:50.070Z,97454.13
2023-05-08T21:57:16.829Z,97453.06
2023-05-08T21:59:43.509Z,97448.09
2023-05-08T22:02:10.263Z,97456.00
2023-05-08T22:04:36.926Z,97443.31
2023-05-08T22:07:03.634Z,97449.16
2023-05-08T22:09:30.245Z,97442.69
2023-05-08T22:11:56.922Z,97451.66
2023-05-08T22:14:23.501Z,97447.34
2023-05-08T22:16:50.183Z,97450.97
2023-05-08T22:19:16.760Z,97444.28
2023-05-08T22:21:43.547Z,97452.13
2023-05-08T22:24:10.138Z,97448.53
2023-05-08T22:26:36.796Z,97454.13
2023-05-08T22:29:03.441Z,97449.25
2023-05-08T22:31:30.174Z,97449.25
2023-05-08T22:33:58.089Z,97448.06
2023-05-08T22:36:24.961Z,97439.00
2023-05-08T22:38:51.854Z,97443.03
2023-05-08T22:41:18.516Z,97432.34
2023-05-08T22:43:45.278Z,97441.13
2023-05-08T22:46:12.199Z,97432.19
2023-05-08T22:48:39.091Z,97432.19
2023-05-08T22:51:07.051Z,97430.06
2023-05-08T22:53:33.737Z,97439.16
2023-05-08T22:56:00.492Z,97425.91
2023-05-08T22:58:29.101Z,97430.19
2023-05-08T23:00:55.940Z,97424.28
2023-05-08T23:03:22.661Z,97421.53
2023-05-08T23:05:49.326Z,97420.84
2023-05-08T23:08:16.071Z,97421.88
2023-05-08T23:10:42.789Z,97421.00
2023-05-08T23:13:09.480Z,97421.59
2023-05-08T23:15:36.760Z,97418.81
2023-05-08T23:18:03.352Z,97411.00
2023-05-08T23:20:30.138Z,97409.78
2023-05-08T23:22:56.873Z,97404.28
2023-05-08T23:25:23.687Z,97407.47
2023-05-08T23:27:50.298Z,97399.84
2023-05-08T23:30:17.079Z,97401.28
2023-05-08T23:32:44.292Z,97395.19
2023-05-08T23:35:11.532Z,97385.81
2023-05-08T23:37:38.273Z,97387.81
2023-05-08T23:40:06.245Z,97374.34
2023-05-08T23:42:32.897Z,97374.88
2023-05-08T23:44:59.699Z,97370.03
2023-05-08T23:47:26.364Z,97371.69
2023-05-08T23:49:53.040Z,97363.81
2023-05-08T23:52:20.493Z,97363.63
2023-05-08T23:54:47.227Z,97353.84
2023-05-08T23:57:13.837Z,97344.63
2023-05-08T23:59:40.494Z,97348.28
